Time;durP1;ratioP1;P1;durP2;ratioP2;P2;SDS_P1;SDS_P2;PMS_P1;PMS_P2;Temp;Humidity;BMP_temperature;BMP_pressure;BME280_temperature;BME280_humidity;BME280_pressure;Samples;Min_cycle;Max_cycle;Signal;HPM_P1;HPM_P2
2022/04/02 00:00:11;;;;;;;5.93;5.28;;;;;;;;;;5051717;28;20048;-73
2022/04/02 00:02:38;;;;;;;5.80;5.30;;;;;;;;;;5051852;28;20049;-73
2022/04/02 00:05:04;;;;;;;6.90;6.20;;;;;;;;;;5050413;28;20073;-73
2022/04/02 00:07:31;;;;;;;6.20;5.30;;;;;;;;;;5051930;28;20080;-72
2022/04/02 00:09:57;;;;;;;7.18;6.00;;;;;;;;;;5051821;28;20128;-73
2022/04/02 00:12:24;;;;;;;8.13;5.90;;;;;;;;;;5051868;28;20084;-73
2022/04/02 00:14:50;;;;;;;24.48;15.25;;;;;;;;;;5051766;28;20096;-73
2022/04/02 00:17:16;;;;;;;38.10;24.90;;;;;;;;;;5050494;28;20467;-73
2022/04/02 00:19:44;;;;;;;31.17;23.38;;;;;;;;;;5051744;28;20045;-73
2022/04/02 00:22:11;;;;;;;14.88;11.25;;;;;;;;;;5051410;28;20077;-73
2022/04/02 00:24:37;;;;;;;10.93;8.50;;;;;;;;;;5051445;28;20535;-73
2022/04/02 00:27:04;;;;;;;6.40;5.80;;;;;;;;;;5051625;28;20445;-73
2022/04/02 00:29:30;;;;;;;6.75;6.05;;;;;;;;;;5028557;28;20111;-73
2022/04/02 00:31:56;;;;;;;7.93;6.47;;;;;;;;;;5035582;28;20144;-73
2022/04/02 00:34:23;;;;;;;7.15;6.45;;;;;;;;;;5050135;28;20469;-73
2022/04/02 00:36:49;;;;;;;6.35;5.78;;;;;;;;;;5049787;28;20559;-73
2022/04/02 00:39:16;;;;;;;7.10;6.40;;;;;;;;;;5051242;28;20069;-73
2022/04/02 00:41:42;;;;;;;6.85;6.07;;;;;;;;;;5051384;28;20092;-73
2022/04/02 00:44:13;;;;;;;7.70;6.50;;;;;;;;;;5051177;28;20412;-73
2022/04/02 00:46:40;;;;;;;7.88;6.95;;;;;;;;;;5051574;28;20111;-73
2022/04/02 00:49:08;;;;;;;8.48;6.97;;;;;;;;;;5051156;28;20512;-73
2022/04/02 00:51:41;;;;;;;7.80;6.90;;;;;;;;;;5051110;28;20083;-73
2022/04/02 00:54:15;;;;;;;7.38;6.28;;;;;;;;;;5049922;28;20524;-73
2022/04/02 00:56:42;;;;;;;7.57;6.13;;;;;;;;;;5051103;28;20045;-72
2022/04/02 00:59:09;;;;;;;8.30;7.03;;;;;;;;;;5051391;28;20073;-73
2022/04/02 01:01:37;;;;;;;8.88;7.93;;;;;;;;;;5051342;28;20459;-73
2022/04/02 01:04:05;;;;;;;7.80;6.63;;;;;;;;;;5051367;28;20131;-73
2022/04/02 01:06:31;;;;;;;9.27;7.03;;;;;;;;;;5051258;28;20080;-73
2022/04/02 01:08:58;;;;;;;8.55;6.78;;;;;;;;;;5050990;28;20496;-72
2022/04/02 01:11:34;;;;;;;7.65;6.82;;;;;;;;;;5050947;28;20049;-72
2022/04/02 01:14:00;;;;;;;7.35;6.60;;;;;;;;;;5043161;28;20072;-72
2022/04/02 01:16:27;;;;;;;8.35;6.90;;;;;;;;;;5050948;28;20076;-72
2022/04/02 01:18:54;;;;;;;10.35;7.65;;;;;;;;;;5049917;28;20444;-73
2022/04/02 01:21:21;;;;;;;8.20;7.40;;;;;;;;;;5049927;28;20090;-73
2022/04/02 01:23:47;;;;;;;7.78;6.95;;;;;;;;;;5050751;28;20443;-73
2022/04/02 01:26:13;;;;;;;7.20;6.50;;;;;;;;;;5051191;28;20049;-73
2022/04/02 01:28:40;;;;;;;8.63;6.50;;;;;;;;;;5051908;28;20073;-73
2022/04/02 01:31:07;;;;;;;9.50;7.82;;;;;;;;;;5054420;28;20106;-73
2022/04/02 01:33:35;;;;;;;8.85;7.38;;;;;;;;;;5054358;28;20052;-73
2022/04/02 01:36:03;;;;;;;9.02;7.70;;;;;;;;;;5054355;28;20049;-73
2022/04/02 01:38:30;;;;;;;7.35;6.65;;;;;;;;;;5054212;28;20084;-73
2022/04/02 01:40:56;;;;;;;8.10;6.93;;;;;;;;;;5054232;28;20571;-73
2022/04/02 01:43:23;;;;;;;9.20;7.32;;;;;;;;;;5054234;28;20102;-73
2022/04/02 01:45:54;;;;;;;9.73;8.13;;;;;;;;;;5054140;28;20465;-73
2022/04/02 01:48:21;;;;;;;8.65;7.68;;;;;;;;;;5052915;28;20052;-73
2022/04/02 01:50:48;;;;;;;9.00;6.80;;;;;;;;;;5052774;28;20080;-73
2022/04/02 01:53:14;;;;;;;8.48;7.55;;;;;;;;;;5053025;28;20053;-73
2022/04/02 01:55:41;;;;;;;8.52;7.72;;;;;;;;;;5054176;28;20053;-73
2022/04/02 01:58:08;;;;;;;9.10;8.00;;;;;;;;;;5054009;28;20413;-73
2022/04/02 02:00:34;;;;;;;12.75;9.23;;;;;;;;;;5054222;28;20045;-73
2022/04/02 02:03:01;;;;;;;15.73;10.82;;;;;;;;;;5054119;28;20122;-73
2022/04/02 02:05:28;;;;;;;15.52;11.30;;;;;;;;;;5053797;28;20106;-73
2022/04/02 02:07:54;;;;;;;13.02;10.18;;;;;;;;;;5053740;28;20139;-73
2022/04/02 02:10:21;;;;;;;14.65;10.40;;;;;;;;;;5053672;28;20048;-73
2022/04/02 02:12:47;;;;;;;10.38;8.88;;;;;;;;;;5053902;28;20048;-74
2022/04/02 02:15:17;;;;;;;10.18;8.82;;;;;;;;;;5053915;28;20476;-73
2022/04/02 02:17:47;;;;;;;10.48;8.75;;;;;;;;;;5052285;28;20480;-73
2022/04/02 02:20:15;;;;;;;13.77;9.98;;;;;;;;;;5053504;28;20041;-73
2022/04/02 02:22:41;;;;;;;13.02;9.80;;;;;;;;;;5053627;28;20041;-73
2022/04/02 02:25:09;;;;;;;12.32;10.07;;;;;;;;;;5053536;28;20095;-73
2022/04/02 02:27:35;;;;;;;12.43;9.82;;;;;;;;;;5053736;28;20080;-73
2022/04/02 02:30:03;;;;;;;11.60;9.75;;;;;;;;;;5052160;28;20171;-74
2022/04/02 02:32:36;;;;;;;16.80;10.73;;;;;;;;;;5053647;28;20082;-74
2022/04/02 02:38:06;;;;;;;11.32;9.93;;;;;;;;;;5053120;28;20087;-74
2022/04/02 02:40:32;;;;;;;12.65;9.45;;;;;;;;;;5052209;28;20455;-73
2022/04/02 02:42:59;;;;;;;11.38;9.93;;;;;;;;;;5053031;28;20140;-73
2022/04/02 02:45:25;;;;;;;12.68;10.38;;;;;;;;;;5053269;28;20064;-73
2022/04/02 02:47:53;;;;;;;14.43;11.32;;;;;;;;;;5053041;28;20098;-72
2022/04/02 02:50:22;;;;;;;13.63;10.60;;;;;;;;;;5052002;28;20461;-73
2022/04/02 02:52:48;;;;;;;11.50;10.15;;;;;;;;;;5053125;28;20136;-73
2022/04/02 02:55:15;;;;;;;12.35;9.40;;;;;;;;;;5052802;28;20140;-74
2022/04/02 02:57:43;;;;;;;11.25;9.85;;;;;;;;;;5052907;28;20073;-74
2022/04/02 03:00:10;;;;;;;10.85;8.93;;;;;;;;;;5053018;28;20489;-73
2022/04/02 03:02:40;;;;;;;9.88;8.77;;;;;;;;;;5052853;28;20085;-74
2022/04/02 03:05:16;;;;;;;12.43;9.93;;;;;;;;;;5051540;28;20132;-74
2022/04/02 03:07:48;;;;;;;14.05;9.93;;;;;;;;;;5051606;28;20087;-74
2022/04/02 03:10:16;;;;;;;11.88;9.40;;;;;;;;;;5051490;28;20145;-74
2022/04/02 03:12:42;;;;;;;10.88;9.65;;;;;;;;;;5051260;28;20477;-73
2022/04/02 03:15:09;;;;;;;11.60;9.68;;;;;;;;;;5052436;28;20079;-73
2022/04/02 03:17:36;;;;;;;11.40;9.43;;;;;;;;;;5051387;28;20041;-73
2022/04/02 03:20:04;;;;;;;11.32;9.52;;;;;;;;;;5052743;28;20072;-73
2022/04/02 03:22:35;;;;;;;12.88;10.23;;;;;;;;;;5051312;28;20084;-73
2022/04/02 03:25:02;;;;;;;12.38;9.82;;;;;;;;;;5051040;28;20095;-73
2022/04/02 03:27:28;;;;;;;11.47;9.87;;;;;;;;;;5052293;28;20090;-74
2022/04/02 03:29:55;;;;;;;11.50;9.05;;;;;;;;;;5050927;28;20087;-74
2022/04/02 03:32:21;;;;;;;12.70;9.85;;;;;;;;;;5052469;28;20095;-74
2022/04/02 03:34:48;;;;;;;12.70;10.27;;;;;;;;;;5052172;28;20507;-74
2022/04/02 03:37:14;;;;;;;13.55;10.48;;;;;;;;;;5051788;28;20081;-74
2022/04/02 03:39:41;;;;;;;13.05;10.50;;;;;;;;;;5052300;28;20095;-74
2022/04/02 03:42:09;;;;;;;12.38;9.88;;;;;;;;;;5051943;28;20076;-73
2022/04/02 03:44:35;;;;;;;13.30;10.57;;;;;;;;;;5051102;28;20052;-73
2022/04/02 03:47:08;;;;;;;14.80;10.68;;;;;;;;;;5051924;28;20088;-73
2022/04/02 03:49:38;;;;;;;13.02;10.38;;;;;;;;;;5051922;28;20048;-73
2022/04/02 03:52:06;;;;;;;11.93;9.45;;;;;;;;;;5051864;28;20076;-73
2022/04/02 03:54:32;;;;;;;12.80;10.18;;;;;;;;;;5052122;28;20049;-73
2022/04/02 03:56:59;;;;;;;13.43;10.38;;;;;;;;;;5051825;28;20494;-73
2022/04/02 03:59:25;;;;;;;14.07;11.32;;;;;;;;;;5051787;28;20084;-73
2022/04/02 04:01:52;;;;;;;14.50;10.77;;;;;;;;;;5050527;28;20119;-73
2022/04/02 04:04:19;;;;;;;14.00;10.88;;;;;;;;;;5051860;28;20052;-73
2022/04/02 04:06:46;;;;;;;14.47;10.27;;;;;;;;;;5050428;28;20053;-74
2022/04/02 04:09:12;;;;;;;16.52;11.25;;;;;;;;;;5051474;28;20091;-74
2022/04/02 04:11:38;;;;;;;13.88;11.23;;;;;;;;;;5051897;28;20052;-74
2022/04/02 04:14:05;;;;;;;12.70;10.43;;;;;;;;;;5051860;28;20051;-74
2022/04/02 04:16:31;;;;;;;14.25;10.65;;;;;;;;;;5050599;28;20227;-74
2022/04/02 04:18:58;;;;;;;12.10;9.77;;;;;;;;;;5051614;28;20132;-73
2022/04/02 04:21:24;;;;;;;13.35;10.60;;;;;;;;;;5051541;28;20041;-74
2022/04/02 04:23:51;;;;;;;13.13;10.48;;;;;;;;;;5051428;28;20075;-73
2022/04/02 04:26:18;;;;;;;12.68;10.68;;;;;;;;;;5050213;28;20556;-74
2022/04/02 04:28:44;;;;;;;13.73;10.75;;;;;;;;;;5050387;28;20049;-74
2022/04/02 04:31:11;;;;;;;12.63;10.95;;;;;;;;;;5050431;28;20084;-73
2022/04/02 04:33:38;;;;;;;12.80;10.85;;;;;;;;;;5051258;28;20049;-73
2022/04/02 04:36:04;;;;;;;13.32;10.45;;;;;;;;;;5051334;28;20095;-73
2022/04/02 04:38:31;;;;;;;15.93;11.48;;;;;;;;;;5051337;28;20058;-73
2022/04/02 04:40:58;;;;;;;16.63;11.15;;;;;;;;;;5051621;28;20111;-73
2022/04/02 04:43:24;;;;;;;14.38;11.43;;;;;;;;;;5051319;28;20080;-73
2022/04/02 04:45:50;;;;;;;13.70;11.30;;;;;;;;;;5051502;28;20053;-73
2022/04/02 04:48:17;;;;;;;14.93;11.70;;;;;;;;;;5051522;28;20049;-73
2022/04/02 04:50:43;;;;;;;14.27;10.98;;;;;;;;;;5051166;28;20084;-73
2022/04/02 04:53:10;;;;;;;14.73;11.45;;;;;;;;;;5051302;28;20084;-73
2022/04/02 04:55:37;;;;;;;14.30;10.83;;;;;;;;;;5051460;28;20053;-73
2022/04/02 04:58:03;;;;;;;15.38;11.13;;;;;;;;;;5051086;28;20136;-73
2022/04/02 05:00:30;;;;;;;11.82;9.95;;;;;;;;;;5051106;28;20128;-73
2022/04/02 05:02:56;;;;;;;13.32;10.35;;;;;;;;;;5051390;28;20101;-73
2022/04/02 05:05:23;;;;;;;14.77;10.50;;;;;;;;;;5053583;28;20045;-73
2022/04/02 05:08:03;;;;;;;13.68;10.93;;;;;;;;;;5055280;28;20084;-73
2022/04/02 05:10:29;;;;;;;14.95;11.80;;;;;;;;;;5054931;28;20091;-73
2022/04/02 05:12:55;;;;;;;15.90;12.65;;;;;;;;;;5055056;28;20137;-73
2022/04/02 05:15:22;;;;;;;14.52;12.52;;;;;;;;;;5054805;28;20080;-73
2022/04/02 05:17:48;;;;;;;14.18;11.90;;;;;;;;;;5054824;28;20171;-73
2022/04/02 05:20:15;;;;;;;15.05;11.65;;;;;;;;;;5054644;28;20084;-73
2022/04/02 05:22:43;;;;;;;13.85;11.02;;;;;;;;;;5054848;28;20132;-74
2022/04/02 05:25:10;;;;;;;19.30;11.48;;;;;;;;;;5053296;28;20045;-74
2022/04/02 05:27:37;;;;;;;14.63;11.40;;;;;;;;;;5053292;28;20095;-74
2022/04/02 05:30:04;;;;;;;17.25;12.70;;;;;;;;;;5054659;28;20091;-73
2022/04/02 05:32:31;;;;;;;14.90;12.13;;;;;;;;;;5054512;28;20092;-74
2022/04/02 05:34:57;;;;;;;16.63;12.10;;;;;;;;;;5053264;28;20088;-74
2022/04/02 05:37:24;;;;;;;14.98;11.63;;;;;;;;;;5054327;28;20084;-74
2022/04/02 05:39:50;;;;;;;18.15;12.23;;;;;;;;;;5054696;28;20463;-75
2022/04/02 05:42:17;;;;;;;16.42;11.38;;;;;;;;;;5054197;28;20094;-76
2022/04/02 05:44:43;;;;;;;16.75;11.68;;;;;;;;;;5054461;28;20045;-76
2022/04/02 05:47:10;;;;;;;15.38;10.77;;;;;;;;;;5054242;28;20116;-75
2022/04/02 05:49:44;;;;;;;16.20;11.63;;;;;;;;;;5054460;28;20111;-75
2022/04/02 05:52:11;;;;;;;14.55;10.35;;;;;;;;;;5054251;28;20555;-75
2022/04/02 05:54:37;;;;;;;13.27;9.68;;;;;;;;;;5054082;28;20052;-75
2022/04/02 05:57:04;;;;;;;13.48;10.68;;;;;;;;;;5054185;28;20133;-75
2022/04/02 05:59:32;;;;;;;13.70;11.18;;;;;;;;;;5052757;28;20551;-75
2022/04/02 06:01:58;;;;;;;13.85;10.75;;;;;;;;;;5054277;28;20041;-75
2022/04/02 06:04:25;;;;;;;13.90;10.07;;;;;;;;;;5053942;28;20095;-75
2022/04/02 06:06:52;;;;;;;13.98;11.38;;;;;;;;;;5053852;28;20087;-75
2022/04/02 06:09:18;;;;;;;13.43;10.73;;;;;;;;;;5052393;28;20080;-76
2022/04/02 06:11:45;;;;;;;14.63;10.85;;;;;;;;;;5052769;28;20088;-75
2022/04/02 06:14:13;;;;;;;14.93;10.57;;;;;;;;;;5052484;28;20096;-76
2022/04/02 06:16:43;;;;;;;12.98;9.70;;;;;;;;;;5052767;28;20052;-76
2022/04/02 06:19:10;;;;;;;15.38;11.02;;;;;;;;;;5053565;28;20053;-75
2022/04/02 06:21:36;;;;;;;15.18;11.10;;;;;;;;;;5053680;28;20037;-76
2022/04/02 06:24:06;;;;;;;14.05;10.77;;;;;;;;;;5053702;28;20441;-76
2022/04/02 06:26:32;;;;;;;12.93;10.32;;;;;;;;;;5052399;28;20131;-74
2022/04/02 06:28:59;;;;;;;15.98;11.05;;;;;;;;;;5053710;28;20084;-75
2022/04/02 06:31:25;;;;;;;14.48;10.20;;;;;;;;;;5053676;28;20072;-75
2022/04/02 06:33:52;;;;;;;14.80;10.82;;;;;;;;;;5053254;28;20065;-74
2022/04/02 06:36:19;;;;;;;14.38;10.63;;;;;;;;;;5053157;28;20139;-75
2022/04/02 06:38:46;;;;;;;15.77;11.13;;;;;;;;;;5053403;28;20087;-75
2022/04/02 06:41:12;;;;;;;15.75;11.27;;;;;;;;;;5052078;28;20084;-73
2022/04/02 06:43:39;;;;;;;13.43;10.45;;;;;;;;;;5053283;28;20477;-76
2022/04/02 06:46:05;;;;;;;13.40;10.18;;;;;;;;;;5053075;28;20080;-76
2022/04/02 06:48:32;;;;;;;13.80;11.00;;;;;;;;;;5053258;28;20091;-75
2022/04/02 06:51:00;;;;;;;14.27;10.05;;;;;;;;;;5052941;28;20084;-75
2022/04/02 06:53:26;;;;;;;14.93;10.68;;;;;;;;;;5052875;28;20053;-75
2022/04/02 06:55:53;;;;;;;14.57;10.27;;;;;;;;;;5053143;28;20100;-76
2022/04/02 06:58:25;;;;;;;18.85;10.63;;;;;;;;;;5052811;28;20103;-76
2022/04/02 07:00:51;;;;;;;13.35;10.07;;;;;;;;;;5053022;28;20083;-75
2022/04/02 07:03:18;;;;;;;15.63;10.20;;;;;;;;;;5053074;28;20468;-74
2022/04/02 07:05:45;;;;;;;11.30;9.23;;;;;;;;;;5052924;28;20045;-75
2022/04/02 07:08:11;;;;;;;14.70;9.85;;;;;;;;;;5052682;28;20480;-75
2022/04/02 07:10:38;;;;;;;11.55;9.60;;;;;;;;;;5052712;28;20080;-76
2022/04/02 07:13:04;;;;;;;11.82;9.68;;;;;;;;;;5051639;28;20088;-76
2022/04/02 07:15:30;;;;;;;11.27;9.30;;;;;;;;;;5035038;28;20133;-74
2022/04/02 07:17:58;;;;;;;13.60;9.40;;;;;;;;;;5036134;28;20048;-75
2022/04/02 07:20:26;;;;;;;12.55;9.25;;;;;;;;;;5032187;28;20045;-74
2022/04/02 07:22:53;;;;;;;;;;;;;;;;;;5042215;28;20107;-78
2022/04/02 07:25:22;;;;;;;12.43;9.88;;;;;;;;;;5032044;28;19925;-77
2022/04/02 07:27:49;;;;;;;10.98;8.63;;;;;;;;;;5045660;28;20087;-74
2022/04/02 07:30:15;;;;;;;8.32;7.47;;;;;;;;;;5051354;28;20076;-77
2022/04/02 07:32:42;;;;;;;8.65;7.47;;;;;;;;;;5032155;28;20107;-80
2022/04/02 07:35:10;;;;;;;10.10;6.90;;;;;;;;;;5043502;28;20085;-74
2022/04/02 07:37:55;;;;;;;7.75;6.88;;;;;;;;;;5031736;28;20046;-72
2022/04/02 07:40:25;;;;;;;9.52;6.50;;;;;;;;;;5041885;28;20055;-75
2022/04/02 07:42:52;;;;;;;;;;;;;;;;;;5052544;28;20084;-75
2022/04/02 07:45:20;;;;;;;6.15;5.38;;;;;;;;;;5052136;28;19967;-72
2022/04/02 07:47:46;;;;;;;;;;;;;;;;;;5047544;28;20087;-74
2022/04/02 07:50:14;;;;;;;7.05;5.05;;;;;;;;;;5039732;28;19994;-74
2022/04/02 07:52:45;;;;;;;6.18;4.38;;;;;;;;;;5040427;28;20125;-75
2022/04/02 07:55:12;;;;;;;8.30;3.88;;;;;;;;;;5032002;28;20081;-74
2022/04/02 07:57:40;;;;;;;4.07;3.37;;;;;;;;;;5034615;28;20081;-74
2022/04/02 08:00:06;;;;;;;;;;;;;;;;;;5049709;28;20114;-77
2022/04/02 08:02:39;;;;;;;3.25;2.95;;;;;;;;;;5036416;28;19979;-76
2022/04/02 08:05:07;;;;;;;4.32;3.42;;;;;;;;;;5033887;28;20141;-77
2022/04/02 08:07:34;;;;;;;6.22;3.60;;;;;;;;;;5042052;28;20125;-77
2022/04/02 08:10:03;;;;;;;3.38;2.95;;;;;;;;;;5039672;28;20087;-74
2022/04/02 08:12:31;;;;;;;3.72;3.42;;;;;;;;;;5051278;28;20049;-74
2022/04/02 08:14:58;;;;;;;3.35;3.05;;;;;;;;;;5036573;28;20156;-72
2022/04/02 08:17:25;;;;;;;4.15;2.88;;;;;;;;;;5031212;28;20559;-74
2022/04/02 08:19:51;;;;;;;3.65;3.22;;;;;;;;;;5044210;28;20120;-73
2022/04/02 08:22:17;;;;;;;3.92;3.00;;;;;;;;;;5047034;28;20049;-72
2022/04/02 08:24:44;;;;;;;3.72;3.40;;;;;;;;;;5031217;28;20128;-71
2022/04/02 08:27:29;;;;;;;4.60;3.88;;;;;;;;;;5050568;28;20076;-74
2022/04/02 08:30:17;;;;;;;4.70;3.70;;;;;;;;;;5051417;28;20088;-73
2022/04/02 08:32:44;;;;;;;5.35;3.80;;;;;;;;;;5050005;28;20061;-75
2022/04/02 08:35:11;;;;;;;6.13;4.50;;;;;;;;;;5049964;28;20084;-77
2022/04/02 08:38:00;;;;;;;4.20;3.80;;;;;;;;;;5036903;28;20180;-76
2022/04/02 08:40:50;;;;;;;6.03;4.63;;;;;;;;;;5036442;28;20049;-75
2022/04/02 08:43:39;;;;;;;4.28;3.88;;;;;;;;;;5033281;28;20074;-72
2022/04/02 08:46:21;;;;;;;4.63;4.10;;;;;;;;;;5034885;28;20543;-72
2022/04/02 08:48:58;;;;;;;5.82;4.55;;;;;;;;;;5034875;28;20551;-72
2022/04/02 08:51:30;;;;;;;6.97;5.55;;;;;;;;;;5033892;28;20076;-72
2022/04/02 08:54:07;;;;;;;6.88;5.13;;;;;;;;;;5042071;28;20091;-72
2022/04/02 08:56:37;;;;;;;6.93;5.20;;;;;;;;;;5055447;28;20091;-73
2022/04/02 08:59:05;;;;;;;6.35;4.75;;;;;;;;;;5055327;28;20110;-72
2022/04/02 09:01:37;;;;;;;7.85;5.10;;;;;;;;;;5055470;28;20123;-72
2022/04/02 09:04:27;;;;;;;6.35;5.03;;;;;;;;;;5055095;28;20044;-72
2022/04/02 09:07:13;;;;;;;6.80;5.18;;;;;;;;;;5053913;28;20435;-73
2022/04/02 09:09:57;;;;;;;6.88;5.00;;;;;;;;;;5055116;28;20477;-72
2022/04/02 09:12:23;;;;;;;6.93;4.82;;;;;;;;;;5053878;28;20045;-72
2022/04/02 09:14:50;;;;;;;7.38;4.82;;;;;;;;;;5055260;28;20453;-73
2022/04/02 09:17:20;;;;;;;5.75;4.55;;;;;;;;;;5054945;28;20123;-73
2022/04/02 09:19:46;;;;;;;5.57;4.85;;;;;;;;;;5034679;28;20478;-72
2022/04/02 09:22:15;;;;;;;7.00;4.95;;;;;;;;;;5040787;28;20106;-73
2022/04/02 09:24:42;;;;;;;5.93;4.75;;;;;;;;;;5042375;28;20085;-72
2022/04/02 09:27:28;;;;;;;6.70;4.88;;;;;;;;;;5054553;28;20155;-73
2022/04/02 09:30:15;;;;;;;6.00;4.80;;;;;;;;;;5054567;28;20089;-73
2022/04/02 09:33:01;;;;;;;6.47;4.93;;;;;;;;;;5053554;28;20482;-74
2022/04/02 09:35:30;;;;;;;6.03;5.25;;;;;;;;;;5054032;28;20057;-74
2022/04/02 09:38:15;;;;;;;6.70;5.57;;;;;;;;;;5053399;28;20071;-74
2022/04/02 09:40:48;;;;;;;6.00;4.95;;;;;;;;;;5053088;28;20532;-74
2022/04/02 09:43:28;;;;;;;5.70;4.90;;;;;;;;;;5026501;28;20067;-73
2022/04/02 09:46:14;;;;;;;6.30;4.60;;;;;;;;;;5052927;28;20523;-69
2022/04/02 09:49:01;;;;;;;6.07;4.72;;;;;;;;;;5036662;28;20053;-74
2022/04/02 09:51:32;;;;;;;5.63;4.75;;;;;;;;;;5029601;28;20485;-75
2022/04/02 09:54:01;;;;;;;4.82;3.92;;;;;;;;;;5043033;28;20049;-74
2022/04/02 09:56:33;;;;;;;4.90;4.35;;;;;;;;;;5037943;28;20088;-73
2022/04/02 09:59:04;;;;;;;5.20;4.70;;;;;;;;;;5032712;28;20049;-73
2022/04/02 10:01:35;;;;;;;5.40;4.60;;;;;;;;;;5032714;28;20049;-72
2022/04/02 10:04:20;;;;;;;7.45;4.85;;;;;;;;;;5032405;28;20490;-72
2022/04/02 10:06:48;;;;;;;5.30;4.40;;;;;;;;;;5032296;28;20054;-72
2022/04/02 10:09:15;;;;;;;5.72;5.10;;;;;;;;;;5032306;28;20493;-72
2022/04/02 10:11:42;;;;;;;;;;;;;;;;;;5034952;28;20049;-72
2022/04/02 10:14:08;;;;;;;5.63;4.70;;;;;;;;;;5052889;28;19924;-72
2022/04/02 10:16:35;;;;;;;6.22;4.82;;;;;;;;;;5034862;28;20081;-72
2022/04/02 10:19:06;;;;;;;7.00;4.85;;;;;;;;;;5032277;28;20053;-72
2022/04/02 10:21:35;;;;;;;6.95;5.03;;;;;;;;;;5033254;28;20532;-72
2022/04/02 10:24:16;;;;;;;6.50;5.78;;;;;;;;;;5052395;28;20543;-72
2022/04/02 10:26:47;;;;;;;5.68;5.07;;;;;;;;;;5052413;28;20485;-72
2022/04/02 10:29:17;;;;;;;5.60;4.97;;;;;;;;;;5051128;28;20092;-72
2022/04/02 10:31:50;;;;;;;4.95;4.18;;;;;;;;;;5047614;28;20049;-72
2022/04/02 10:34:16;;;;;;;;;;;;;;;;;;5043272;28;20084;-73
2022/04/02 10:36:51;;;;;;;8.20;5.17;;;;;;;;;;4991380;28;1352934;-72
2022/04/02 10:39:21;;;;;;;6.57;5.40;;;;;;;;;;5047759;28;20136;-73
2022/04/02 10:41:53;;;;;;;7.03;5.00;;;;;;;;;;5051941;28;20131;-73
2022/04/02 10:44:29;;;;;;;5.72;5.03;;;;;;;;;;5032720;28;20497;-72
2022/04/02 10:46:57;;;;;;;6.15;4.97;;;;;;;;;;5034374;28;20069;-73
2022/04/02 10:49:28;;;;;;;4.93;4.43;;;;;;;;;;5043018;28;20079;-72
2022/04/02 10:51:54;;;;;;;5.68;4.25;;;;;;;;;;5051971;28;20103;-73
2022/04/02 10:54:26;;;;;;;4.85;4.15;;;;;;;;;;5036762;28;20045;-71
2022/04/02 10:56:52;;;;;;;4.13;3.72;;;;;;;;;;5033263;28;20092;-73
2022/04/02 10:59:19;;;;;;;4.13;3.72;;;;;;;;;;5038043;28;20076;-74
2022/04/02 11:01:48;;;;;;;3.80;3.40;;;;;;;;;;5049704;28;20049;-73
2022/04/02 11:04:20;;;;;;;3.50;3.20;;;;;;;;;;5045616;28;20049;-72
2022/04/02 11:06:51;;;;;;;5.93;4.00;;;;;;;;;;5043237;28;20083;-74
2022/04/02 11:09:25;;;;;;;4.75;3.25;;;;;;;;;;5050045;28;20036;-75
2022/04/02 11:11:52;;;;;;;3.05;2.28;;;;;;;;;;5051107;28;20059;-74
2022/04/02 11:14:21;;;;;;;2.60;2.38;;;;;;;;;;5051213;28;20531;-73
2022/04/02 11:16:48;;;;;;;2.88;2.60;;;;;;;;;;5050246;28;20077;-76
2022/04/02 11:22:02;;;;;;;3.42;3.05;;;;;;;;;;5045913;28;20128;-72
2022/04/02 11:24:31;;;;;;;3.97;3.38;;;;;;;;;;5042802;28;20048;-70
2022/04/02 11:26:58;;;;;;;4.00;3.28;;;;;;;;;;5051427;28;20041;-72
2022/04/02 11:29:25;;;;;;;3.40;3.10;;;;;;;;;;5036761;28;20077;-73
2022/04/02 11:31:53;;;;;;;4.18;3.60;;;;;;;;;;5029412;28;20084;-72
2022/04/02 11:34:25;;;;;;;5.00;4.13;;;;;;;;;;5031177;28;20049;-80
2022/04/02 11:36:54;;;;;;;8.18;4.78;;;;;;;;;;5030697;28;20123;-78
2022/04/02 11:39:46;;;;;;;3.55;3.25;;;;;;;;;;5029397;28;20076;-78
2022/04/02 11:42:14;;;;;;;3.92;3.08;;;;;;;;;;5029880;28;20077;-73
2022/04/02 11:44:49;;;;;;;4.07;3.10;;;;;;;;;;5030248;28;20076;-72
2022/04/02 11:47:24;;;;;;;4.72;2.53;;;;;;;;;;5032791;28;20461;-73
2022/04/02 11:49:52;;;;;;;3.63;3.00;;;;;;;;;;5048869;28;20087;-72
2022/04/02 11:52:19;;;;;;;3.42;3.13;;;;;;;;;;5051253;28;20118;-73
2022/04/02 11:54:48;;;;;;;3.70;3.00;;;;;;;;;;5051105;28;20080;-73
2022/04/02 11:57:15;;;;;;;5.55;3.17;;;;;;;;;;5048147;28;20053;-85
2022/04/02 11:59:52;;;;;;;4.72;2.95;;;;;;;;;;5030672;28;20115;-74
2022/04/02 12:02:41;;;;;;;3.40;3.05;;;;;;;;;;5030730;28;20065;-79
2022/04/02 12:05:14;;;;;;;5.53;4.95;;;;;;;;;;5039546;28;20053;-71
2022/04/02 12:07:50;;;;;;;3.92;3.45;;;;;;;;;;5049558;28;20079;-75
2022/04/02 12:10:47;;;;;;;4.38;3.67;;;;;;;;;;5051201;28;20056;-75
2022/04/02 12:13:16;;;;;;;6.68;5.13;;;;;;;;;;5050667;28;20079;-79
2022/04/02 12:16:13;;;;;;;5.75;3.75;;;;;;;;;;5038571;28;20057;-73
2022/04/02 12:19:11;;;;;;;4.00;3.37;;;;;;;;;;5035309;28;20507;-73
2022/04/02 12:21:41;;;;;;;3.60;3.30;;;;;;;;;;5050167;28;20087;-73
2022/04/02 12:24:08;;;;;;;4.55;3.28;;;;;;;;;;5041402;28;20085;-72
2022/04/02 12:26:35;;;;;;;3.88;3.42;;;;;;;;;;5030656;28;20059;-71
2022/04/02 12:29:02;;;;;;;3.03;2.72;;;;;;;;;;5042922;28;20464;-72
2022/04/02 12:31:33;;;;;;;5.57;3.20;;;;;;;;;;5042848;28;20048;-74
2022/04/02 12:34:00;;;;;;;3.78;3.28;;;;;;;;;;5040582;28;20092;-72
2022/04/02 12:36:30;;;;;;;7.05;4.03;;;;;;;;;;5046172;28;20099;-75
2022/04/02 12:39:05;;;;;;;3.58;3.00;;;;;;;;;;5038139;28;20124;-72
2022/04/02 12:41:32;;;;;;;5.68;3.78;;;;;;;;;;5041060;28;20041;-72
2022/04/02 12:44:00;;;;;;;5.30;4.03;;;;;;;;;;5029970;28;20080;-71
2022/04/02 12:46:27;;;;;;;2.97;2.67;;;;;;;;;;5037546;28;20065;-71
2022/04/02 12:48:53;;;;;;;4.88;3.85;;;;;;;;;;5026641;28;20049;-69
2022/04/02 12:51:20;;;;;;;6.18;5.68;;;;;;;;;;5030026;28;20075;-71
2022/04/02 12:53:48;;;;;;;5.20;2.95;;;;;;;;;;5029838;28;20053;-70
2022/04/02 12:56:14;;;;;;;;;;;;;;;;;;5030207;28;20081;-71
2022/04/02 12:58:42;;;;;;;4.13;3.15;;;;;;;;;;5030080;28;19956;-71
2022/04/02 13:01:09;;;;;;;2.90;2.25;;;;;;;;;;5030300;28;20080;-71
2022/04/02 13:03:56;;;;;;;3.53;2.75;;;;;;;;;;5029785;28;20133;-70
2022/04/02 13:06:24;;;;;;;3.50;3.17;;;;;;;;;;5029168;28;20140;-71
2022/04/02 13:08:57;;;;;;;6.15;5.75;;;;;;;;;;5028455;28;20790;-70
2022/04/02 13:11:30;;;;;;;5.20;4.72;;;;;;;;;;5029920;28;20107;-71
2022/04/02 13:14:02;;;;;;;4.07;3.25;;;;;;;;;;5039032;28;20136;-70
2022/04/02 13:16:37;;;;;;;3.40;2.20;;;;;;;;;;5049876;28;20053;-71
2022/04/02 13:21:50;;;;;;;4.00;2.10;;;;;;;;;;5050081;28;20072;-69
2022/04/02 13:24:27;;;;;;;1.73;1.63;;;;;;;;;;5050249;28;20495;-71
2022/04/02 13:27:14;;;;;;;2.75;2.05;;;;;;;;;;5052303;28;20044;-71
2022/04/02 13:29:40;;;;;;;2.50;2.30;;;;;;;;;;5053488;28;20052;-71
2022/04/02 13:32:07;;;;;;;5.25;4.45;;;;;;;;;;5053718;28;20099;-70
2022/04/02 13:34:41;;;;;;;5.30;4.80;;;;;;;;;;5053688;28;20057;-70
2022/04/02 13:37:20;;;;;;;23.75;18.08;;;;;;;;;;5053172;28;20401;-70
2022/04/02 13:39:55;;;;;;;2.95;2.65;;;;;;;;;;5052385;28;20163;-70
2022/04/02 13:42:27;;;;;;;3.42;3.13;;;;;;;;;;5053180;28;20550;-73
2022/04/02 13:44:57;;;;;;;4.05;3.67;;;;;;;;;;5052227;28;20076;-70
2022/04/02 13:47:24;;;;;;;3.28;2.97;;;;;;;;;;5045200;28;20505;-71
2022/04/02 13:49:57;;;;;;;4.32;3.50;;;;;;;;;;5043868;28;20505;-71
2022/04/02 13:52:25;;;;;;;4.60;4.13;;;;;;;;;;5052931;28;20080;-74
2022/04/02 13:54:51;;;;;;;;;;;;;;;;;;5053495;28;20088;-71
2022/04/02 13:57:18;;;;;;;5.75;2.90;;;;;;;;;;5051404;28;20027;-73
2022/04/02 13:59:45;;;;;;;;;;;;;;;;;;5054669;28;20076;-75
2022/04/02 14:02:15;;;;;;;3.50;2.63;;;;;;;;;;5053845;28;20362;-74
2022/04/02 14:04:43;;;;;;;2.65;2.30;;;;;;;;;;5054278;28;20080;-71
2022/04/02 14:07:10;;;;;;;3.40;2.85;;;;;;;;;;5053894;28;20136;-75
2022/04/02 14:09:37;;;;;;;3.15;2.50;;;;;;;;;;5051954;28;20091;-78
2022/04/02 14:12:07;;;;;;;2.72;2.35;;;;;;;;;;5035072;28;20119;-75
2022/04/02 14:15:00;;;;;;;2.40;1.98;;;;;;;;;;5038492;28;20481;-75
2022/04/02 14:17:28;;;;;;;2.20;2.10;;;;;;;;;;5052321;28;20069;-75
2022/04/02 14:20:05;;;;;;;2.08;1.90;;;;;;;;;;5049705;28;20081;-75
2022/04/02 14:22:55;;;;;;;3.45;2.30;;;;;;;;;;5053744;28;20080;-76
2022/04/02 14:25:34;;;;;;;2.38;1.83;;;;;;;;;;5052281;28;20045;-74
2022/04/02 14:28:04;;;;;;;3.00;2.30;;;;;;;;;;5043479;28;20132;-73
2022/04/02 14:30:49;;;;;;;2.67;2.17;;;;;;;;;;5026375;28;20080;-78
2022/04/02 14:33:17;;;;;;;2.00;1.80;;;;;;;;;;5053298;28;20053;-75
2022/04/02 14:36:04;;;;;;;2.38;1.50;;;;;;;;;;5051224;28;20453;-76
2022/04/02 14:38:52;;;;;;;1.30;1.20;;;;;;;;;;5053125;28;20084;-73
2022/04/02 14:41:35;;;;;;;1.88;1.35;;;;;;;;;;5053397;28;20048;-74
2022/04/02 14:44:04;;;;;;;2.42;1.63;;;;;;;;;;5051647;28;20443;-74
2022/04/02 14:46:40;;;;;;;1.48;1.30;;;;;;;;;;5045439;28;20451;-75
2022/04/02 14:49:23;;;;;;;2.35;1.13;;;;;;;;;;5051648;28;20056;-72
2022/04/02 14:52:05;;;;;;;0.90;0.90;;;;;;;;;;5051796;28;20471;-73
2022/04/02 14:54:37;;;;;;;13.10;7.35;;;;;;;;;;5052995;28;20075;-73
2022/04/02 14:57:12;;;;;;;1.90;1.70;;;;;;;;;;5052847;28;20061;-73
2022/04/02 14:59:58;;;;;;;1.65;1.55;;;;;;;;;;5048206;28;20045;-74